PMZ weather

Plymouth Municipal Airport
Plymouth, North Carolina, United States

Public forecast

Using degrees Fahrenheit for public forecast. Weather courtesy of forecast.io.

Closest aviation weather report (METAR) to Plymouth Municipal Airport

Closest report is Northeastern Regional Airport, 16.1 nm (29.9 km) NE. Retrieved 2020/02/20 04:35 UTC (0 seconds ago):

KEDE 200435Z AUTO 00000KT 10SM SCT100 04/03 A3043 RMK AO2 T00360029

Closest aviation forecast (TAF) to Plymouth Municipal Airport

Forecast is more than 6 hours old.

Closest forecast is Pitt Greenville Airport, 32.2 nm (59.7 km) WSW. Retrieved 2020/02/19 18:24 UTC (10 hours ago):

TAF KPGV 191721Z 1918/2018 02007KT P6SM BKN040 FM192100 03008G14KT P6SM OVC050 AMD LTD TO CLD VIS AND WIND